sensor_id;sensor_type;location;lat;lon;timestamp;pressure;altitude;pressure_sealevel;temperature;humidity
41515;BME280;27247;48.020;16.720;2023-03-18T00:00:00;99947.78;;;4.96;54.01
41515;BME280;27247;48.020;16.720;2023-03-18T00:04:10;99946.66;;;4.89;54.28
41515;BME280;27247;48.020;16.720;2023-03-18T00:08:21;99952.09;;;4.88;54.20
41515;BME280;27247;48.020;16.720;2023-03-18T00:12:32;99946.25;;;4.94;53.98
41515;BME280;27247;48.020;16.720;2023-03-18T00:16:43;99958.25;;;4.98;53.93
41515;BME280;27247;48.020;16.720;2023-03-18T00:20:54;99932.59;;;4.98;53.51
41515;BME280;27247;48.020;16.720;2023-03-18T00:25:08;99947.38;;;5.01;53.72
41515;BME280;27247;48.020;16.720;2023-03-18T00:29:20;99940.97;;;4.94;54.16
41515;BME280;27247;48.020;16.720;2023-03-18T00:33:31;99945.56;;;4.92;53.79
41515;BME280;27247;48.020;16.720;2023-03-18T00:37:42;99960.72;;;4.80;54.00
41515;BME280;27247;48.020;16.720;2023-03-18T00:41:56;99947.34;;;4.81;54.32
41515;BME280;27247;48.020;16.720;2023-03-18T00:46:07;99951.22;;;4.68;54.66
41515;BME280;27247;48.020;16.720;2023-03-18T00:50:17;99937.41;;;4.64;54.52
41515;BME280;27247;48.020;16.720;2023-03-18T00:54:28;99937.69;;;4.61;54.65
41515;BME280;27247;48.020;16.720;2023-03-18T00:58:39;99942.94;;;4.52;54.82
41515;BME280;27247;48.020;16.720;2023-03-18T01:02:50;99935.06;;;4.31;55.30
41515;BME280;27247;48.020;16.720;2023-03-18T01:07:00;99916.88;;;4.37;55.52
41515;BME280;27247;48.020;16.720;2023-03-18T01:11:11;99935.13;;;4.40;55.11
41515;BME280;27247;48.020;16.720;2023-03-18T01:15:23;99931.06;;;4.36;55.52
41515;BME280;27247;48.020;16.720;2023-03-18T01:19:34;99938.78;;;4.19;56.07
41515;BME280;27247;48.020;16.720;2023-03-18T01:23:45;99926.06;;;4.12;56.48
41515;BME280;27247;48.020;16.720;2023-03-18T01:27:56;99934.53;;;4.06;56.55
41515;BME280;27247;48.020;16.720;2023-03-18T01:32:07;99926.84;;;4.03;56.75
41515;BME280;27247;48.020;16.720;2023-03-18T01:36:18;99934.88;;;3.92;57.00
41515;BME280;27247;48.020;16.720;2023-03-18T01:40:31;99931.13;;;3.95;57.61
41515;BME280;27247;48.020;16.720;2023-03-18T01:44:41;99930.09;;;3.86;57.58
41515;BME280;27247;48.020;16.720;2023-03-18T01:48:53;99934.63;;;3.74;57.89
41515;BME280;27247;48.020;16.720;2023-03-18T01:53:14;99925.22;;;3.81;58.12
41515;BME280;27247;48.020;16.720;2023-03-18T01:57:26;99929.59;;;3.71;58.50
41515;BME280;27247;48.020;16.720;2023-03-18T02:05:58;99917.34;;;3.49;58.94
41515;BME280;27247;48.020;16.720;2023-03-18T02:10:16;99930.63;;;3.38;59.29
41515;BME280;27247;48.020;16.720;2023-03-18T02:14:27;99930.94;;;3.45;59.20
41515;BME280;27247;48.020;16.720;2023-03-18T02:18:43;99937.19;;;3.44;59.26
41515;BME280;27247;48.020;16.720;2023-03-18T02:22:59;99932.09;;;3.31;59.37
41515;BME280;27247;48.020;16.720;2023-03-18T02:31:22;99935.25;;;3.25;60.12
41515;BME280;27247;48.020;16.720;2023-03-18T02:35:34;99940.66;;;3.24;59.64
41515;BME280;27247;48.020;16.720;2023-03-18T02:39:45;99939.47;;;3.16;60.26
41515;BME280;27247;48.020;16.720;2023-03-18T02:43:55;99936.72;;;3.18;60.17
41515;BME280;27247;48.020;16.720;2023-03-18T02:48:06;99932.03;;;3.10;60.46
41515;BME280;27247;48.020;16.720;2023-03-18T02:52:17;99928.81;;;3.07;60.75
41515;BME280;27247;48.020;16.720;2023-03-18T02:56:28;99931.69;;;3.04;60.78
41515;BME280;27247;48.020;16.720;2023-03-18T03:00:38;99928.34;;;3.02;60.90
41515;BME280;27247;48.020;16.720;2023-03-18T03:04:49;99942.91;;;2.85;61.54
41515;BME280;27247;48.020;16.720;2023-03-18T03:09:00;99953.47;;;2.85;61.32
41515;BME280;27247;48.020;16.720;2023-03-18T03:13:12;99940.41;;;2.83;61.42
41515;BME280;27247;48.020;16.720;2023-03-18T03:17:22;99937.63;;;2.85;61.21
41515;BME280;27247;48.020;16.720;2023-03-18T03:21:33;99930.94;;;2.81;61.43
41515;BME280;27247;48.020;16.720;2023-03-18T03:25:45;99939.81;;;2.80;61.70
41515;BME280;27247;48.020;16.720;2023-03-18T03:29:55;99932.84;;;2.79;61.88
41515;BME280;27247;48.020;16.720;2023-03-18T03:34:06;99941.84;;;2.76;61.53
41515;BME280;27247;48.020;16.720;2023-03-18T03:38:16;99955.03;;;2.76;61.95
41515;BME280;27247;48.020;16.720;2023-03-18T03:42:27;99958.78;;;2.74;61.69
41515;BME280;27247;48.020;16.720;2023-03-18T03:46:37;99957.09;;;2.73;61.59
41515;BME280;27247;48.020;16.720;2023-03-18T03:50:49;99960.31;;;2.76;61.92
41515;BME280;27247;48.020;16.720;2023-03-18T03:55:00;99975.81;;;2.70;61.71
41515;BME280;27247;48.020;16.720;2023-03-18T03:59:10;99988.63;;;2.74;61.58
41515;BME280;27247;48.020;16.720;2023-03-18T04:03:20;99985.28;;;2.72;61.67
41515;BME280;27247;48.020;16.720;2023-03-18T04:07:31;99985.53;;;2.69;61.59
41515;BME280;27247;48.020;16.720;2023-03-18T04:11:41;99993.44;;;2.58;62.05
41515;BME280;27247;48.020;16.720;2023-03-18T04:15:53;99998.13;;;2.43;61.96
41515;BME280;27247;48.020;16.720;2023-03-18T04:20:04;99993.22;;;2.50;62.54
41515;BME280;27247;48.020;16.720;2023-03-18T04:24:14;99997.41;;;2.52;62.04
41515;BME280;27247;48.020;16.720;2023-03-18T04:28:25;99989.97;;;2.46;62.17
41515;BME280;27247;48.020;16.720;2023-03-18T04:32:36;100003.03;;;2.37;62.77
41515;BME280;27247;48.020;16.720;2023-03-18T04:36:47;99994.66;;;2.32;62.46
41515;BME280;27247;48.020;16.720;2023-03-18T04:40:57;99987.56;;;2.21;63.00
41515;BME280;27247;48.020;16.720;2023-03-18T04:45:08;99986.25;;;2.15;63.14
41515;BME280;27247;48.020;16.720;2023-03-18T04:49:19;99992.06;;;2.08;63.27
41515;BME280;27247;48.020;16.720;2023-03-18T04:53:29;99991.63;;;2.14;63.31
41515;BME280;27247;48.020;16.720;2023-03-18T04:57:40;100005.59;;;2.03;63.99
41515;BME280;27247;48.020;16.720;2023-03-18T05:01:51;100011.72;;;2.04;63.66
41515;BME280;27247;48.020;16.720;2023-03-18T05:06:02;100020.34;;;2.06;63.71
41515;BME280;27247;48.020;16.720;2023-03-18T05:10:13;100023.44;;;2.00;64.05
41515;BME280;27247;48.020;16.720;2023-03-18T05:14:24;100031.34;;;2.00;64.33
41515;BME280;27247;48.020;16.720;2023-03-18T05:18:35;100036.63;;;2.00;64.41
41515;BME280;27247;48.020;16.720;2023-03-18T05:22:46;100022.59;;;1.88;65.14
41515;BME280;27247;48.020;16.720;2023-03-18T05:26:56;100027.00;;;1.87;65.24
41515;BME280;27247;48.020;16.720;2023-03-18T05:31:07;100019.84;;;1.89;65.75
41515;BME280;27247;48.020;16.720;2023-03-18T05:35:17;100012.19;;;1.98;65.41
41515;BME280;27247;48.020;16.720;2023-03-18T05:39:28;100003.44;;;1.97;65.94
41515;BME280;27247;48.020;16.720;2023-03-18T05:43:38;99994.09;;;2.04;66.25
41515;BME280;27247;48.020;16.720;2023-03-18T05:47:49;99990.94;;;2.23;65.14
41515;BME280;27247;48.020;16.720;2023-03-18T05:52:00;100007.00;;;2.31;64.06
41515;BME280;27247;48.020;16.720;2023-03-18T05:56:11;100039.97;;;2.48;64.36
41515;BME280;27247;48.020;16.720;2023-03-18T06:00:24;100054.81;;;2.60;63.42
41515;BME280;27247;48.020;16.720;2023-03-18T06:04:35;100045.34;;;2.80;62.98
41515;BME280;27247;48.020;16.720;2023-03-18T06:08:46;100049.31;;;2.85;62.68
41515;BME280;27247;48.020;16.720;2023-03-18T06:12:57;100056.63;;;2.93;63.09
41515;BME280;27247;48.020;16.720;2023-03-18T06:17:07;100061.91;;;3.15;62.33
41515;BME280;27247;48.020;16.720;2023-03-18T06:21:18;100065.81;;;3.32;62.00
41515;BME280;27247;48.020;16.720;2023-03-18T06:25:29;100066.63;;;3.44;61.13
41515;BME280;27247;48.020;16.720;2023-03-18T06:29:40;100064.41;;;3.60;60.96
41515;BME280;27247;48.020;16.720;2023-03-18T06:33:50;100066.50;;;3.77;60.96
41515;BME280;27247;48.020;16.720;2023-03-18T06:38:01;100067.88;;;3.93;60.71
41515;BME280;27247;48.020;16.720;2023-03-18T06:42:12;100061.56;;;4.05;60.20
41515;BME280;27247;48.020;16.720;2023-03-18T06:46:22;100056.00;;;4.19;60.01
41515;BME280;27247;48.020;16.720;2023-03-18T06:50:33;100057.34;;;4.34;59.56
41515;BME280;27247;48.020;16.720;2023-03-18T06:54:43;100060.09;;;4.54;59.40
41515;BME280;27247;48.020;16.720;2023-03-18T06:58:54;100071.59;;;4.73;58.55
41515;BME280;27247;48.020;16.720;2023-03-18T07:03:05;100071.25;;;4.88;58.73
41515;BME280;27247;48.020;16.720;2023-03-18T07:07:15;100065.72;;;5.00;57.60
41515;BME280;27247;48.020;16.720;2023-03-18T07:11:26;100075.91;;;5.05;57.43
41515;BME280;27247;48.020;16.720;2023-03-18T07:15:37;100090.84;;;5.16;57.91
41515;BME280;27247;48.020;16.720;2023-03-18T07:19:48;100092.44;;;5.28;56.88
41515;BME280;27247;48.020;16.720;2023-03-18T07:23:58;100103.38;;;5.54;55.76
41515;BME280;27247;48.020;16.720;2023-03-18T07:28:09;100102.56;;;5.72;55.25
41515;BME280;27247;48.020;16.720;2023-03-18T07:32:20;100109.41;;;5.85;55.58
41515;BME280;27247;48.020;16.720;2023-03-18T07:36:30;100099.97;;;6.01;56.42
41515;BME280;27247;48.020;16.720;2023-03-18T07:40:40;100109.72;;;5.91;55.26
41515;BME280;27247;48.020;16.720;2023-03-18T07:44:52;100105.41;;;6.19;56.01
41515;BME280;27247;48.020;16.720;2023-03-18T07:49:02;100092.41;;;6.35;56.41
41515;BME280;27247;48.020;16.720;2023-03-18T07:53:13;100114.19;;;6.20;54.51
41515;BME280;27247;48.020;16.720;2023-03-18T07:57:23;100115.75;;;6.32;54.40
41515;BME280;27247;48.020;16.720;2023-03-18T08:01:33;100108.03;;;6.48;54.88
41515;BME280;27247;48.020;16.720;2023-03-18T08:05:44;100103.56;;;6.95;54.70
41515;BME280;27247;48.020;16.720;2023-03-18T08:09:54;100108.44;;;7.00;53.54
41515;BME280;27247;48.020;16.720;2023-03-18T08:14:05;100108.44;;;7.37;53.10
41515;BME280;27247;48.020;16.720;2023-03-18T08:18:15;100104.09;;;7.36;52.96
41515;BME280;27247;48.020;16.720;2023-03-18T08:22:25;100100.19;;;7.58;52.72
41515;BME280;27247;48.020;16.720;2023-03-18T08:26:37;100107.44;;;7.38;52.32
41515;BME280;27247;48.020;16.720;2023-03-18T08:30:47;100098.25;;;7.78;53.15
41515;BME280;27247;48.020;16.720;2023-03-18T08:34:58;100092.50;;;8.26;52.49
41515;BME280;27247;48.020;16.720;2023-03-18T08:39:08;100083.94;;;8.50;52.12
41515;BME280;27247;48.020;16.720;2023-03-18T08:43:21;100089.47;;;8.21;51.05
41515;BME280;27247;48.020;16.720;2023-03-18T08:47:32;100100.00;;;8.40;51.57
41515;BME280;27247;48.020;16.720;2023-03-18T08:51:42;100098.09;;;8.32;51.18
41515;BME280;27247;48.020;16.720;2023-03-18T08:55:53;100099.06;;;8.14;50.98
41515;BME280;27247;48.020;16.720;2023-03-18T09:00:05;100103.97;;;8.36;51.27
41515;BME280;27247;48.020;16.720;2023-03-18T09:04:15;100104.25;;;8.51;50.59
41515;BME280;27247;48.020;16.720;2023-03-18T09:08:25;100106.75;;;8.52;50.82
41515;BME280;27247;48.020;16.720;2023-03-18T09:12:41;100087.44;;;8.50;50.32
41515;BME280;27247;48.020;16.720;2023-03-18T09:16:52;100090.75;;;8.78;50.42
41515;BME280;27247;48.020;16.720;2023-03-18T09:21:04;100088.59;;;9.08;50.35
41515;BME280;27247;48.020;16.720;2023-03-18T09:25:14;100079.19;;;8.95;49.75
41515;BME280;27247;48.020;16.720;2023-03-18T09:29:26;100091.09;;;9.09;50.11
41515;BME280;27247;48.020;16.720;2023-03-18T09:33:36;100087.34;;;8.94;49.09
41515;BME280;27247;48.020;16.720;2023-03-18T09:37:47;100089.22;;;9.02;49.82
41515;BME280;27247;48.020;16.720;2023-03-18T09:46:52;100090.97;;;9.69;49.16
41515;BME280;27247;48.020;16.720;2023-03-18T09:55:51;100088.53;;;10.16;48.28
41515;BME280;27247;48.020;16.720;2023-03-18T10:04:38;100069.97;;;10.80;46.76
41515;BME280;27247;48.020;16.720;2023-03-18T10:13:28;100068.22;;;11.03;46.83
41515;BME280;27247;48.020;16.720;2023-03-18T10:17:54;100059.22;;;11.35;46.27
41515;BME280;27247;48.020;16.720;2023-03-18T10:39:38;100053.16;;;11.49;44.49
41515;BME280;27247;48.020;16.720;2023-03-18T10:43:51;100056.19;;;11.38;44.47
41515;BME280;27247;48.020;16.720;2023-03-18T10:48:11;100059.66;;;11.55;44.40
41515;BME280;27247;48.020;16.720;2023-03-18T10:56:35;100040.88;;;12.09;43.33
41515;BME280;27247;48.020;16.720;2023-03-18T11:00:46;100041.00;;;12.15;43.49
41515;BME280;27247;48.020;16.720;2023-03-18T11:05:21;100037.69;;;11.91;44.01
41515;BME280;27247;48.020;16.720;2023-03-18T11:09:35;100032.22;;;12.59;43.90
41515;BME280;27247;48.020;16.720;2023-03-18T11:13:50;100025.75;;;12.83;44.52
41515;BME280;27247;48.020;16.720;2023-03-18T11:18:02;100039.72;;;12.78;43.58
41515;BME280;27247;48.020;16.720;2023-03-18T11:22:23;100030.38;;;12.89;43.45
41515;BME280;27247;48.020;16.720;2023-03-18T11:26:56;100033.63;;;12.70;43.64
41515;BME280;27247;48.020;16.720;2023-03-18T11:31:06;100018.59;;;13.34;43.84
41515;BME280;27247;48.020;16.720;2023-03-18T11:35:23;100009.50;;;13.35;43.46
41515;BME280;27247;48.020;16.720;2023-03-18T11:39:38;100024.66;;;13.58;42.87
41515;BME280;27247;48.020;16.720;2023-03-18T11:44:05;100009.91;;;13.32;42.40
41515;BME280;27247;48.020;16.720;2023-03-18T11:48:38;100013.13;;;13.28;42.35
41515;BME280;27247;48.020;16.720;2023-03-18T11:53:07;100004.78;;;13.37;42.13
41515;BME280;27247;48.020;16.720;2023-03-18T12:06:29;99993.59;;;13.91;42.79
41515;BME280;27247;48.020;16.720;2023-03-18T12:11:18;99986.31;;;13.64;42.06
41515;BME280;27247;48.020;16.720;2023-03-18T12:15:43;99976.44;;;13.71;41.37
41515;BME280;27247;48.020;16.720;2023-03-18T12:33:31;99954.25;;;14.67;41.22
41515;BME280;27247;48.020;16.720;2023-03-18T12:42:10;99952.25;;;14.48;40.27
41515;BME280;27247;48.020;16.720;2023-03-18T12:46:30;99939.25;;;14.24;40.68
41515;BME280;27247;48.020;16.720;2023-03-18T12:50:48;99948.88;;;14.39;40.59
41515;BME280;27247;48.020;16.720;2023-03-18T12:59:43;99932.66;;;14.54;39.93
41515;BME280;27247;48.020;16.720;2023-03-18T13:04:00;99925.31;;;14.76;40.00
41515;BME280;27247;48.020;16.720;2023-03-18T13:08:53;99937.88;;;14.62;39.97
41515;BME280;27247;48.020;16.720;2023-03-18T13:13:07;99942.31;;;14.83;39.55
41515;BME280;27247;48.020;16.720;2023-03-18T13:17:23;99933.72;;;15.08;39.12
41515;BME280;27247;48.020;16.720;2023-03-18T13:21:40;99938.09;;;15.15;39.49
41515;BME280;27247;48.020;16.720;2023-03-18T13:26:12;99932.50;;;15.10;38.84
41515;BME280;27247;48.020;16.720;2023-03-18T13:35:08;99913.78;;;15.70;39.13
41515;BME280;27247;48.020;16.720;2023-03-18T13:48:43;99906.53;;;15.77;38.95
41515;BME280;27247;48.020;16.720;2023-03-18T13:52:55;99902.59;;;15.86;38.90
41515;BME280;27247;48.020;16.720;2023-03-18T14:01:47;99898.03;;;15.93;38.41
41515;BME280;27247;48.020;16.720;2023-03-18T14:10:17;99907.63;;;15.08;38.30
41515;BME280;27247;48.020;16.720;2023-03-18T14:14:52;99905.84;;;15.35;39.22
41515;BME280;27247;48.020;16.720;2023-03-18T14:19:16;99894.44;;;15.40;38.24
41515;BME280;27247;48.020;16.720;2023-03-18T14:23:34;99894.72;;;15.84;38.49
41515;BME280;27247;48.020;16.720;2023-03-18T14:27:49;99893.91;;;15.77;38.42
41515;BME280;27247;48.020;16.720;2023-03-18T14:32:02;99882.06;;;15.85;37.37
41515;BME280;27247;48.020;16.720;2023-03-18T14:37:03;99877.47;;;16.18;38.12
41515;BME280;27247;48.020;16.720;2023-03-18T14:40:57;99876.84;;;15.50;38.71
41515;BME280;27247;48.020;16.720;2023-03-18T14:45:25;99865.69;;;15.86;38.10
41515;BME280;27247;48.020;16.720;2023-03-18T14:50:00;99870.22;;;15.46;38.16
41515;BME280;27247;48.020;16.720;2023-03-18T14:54:19;99870.59;;;15.17;38.58
41515;BME280;27247;48.020;16.720;2023-03-18T14:58:32;99869.16;;;15.21;39.18
41515;BME280;27247;48.020;16.720;2023-03-18T15:02:43;99853.41;;;15.18;39.05
41515;BME280;27247;48.020;16.720;2023-03-18T15:06:59;99861.03;;;15.01;38.32
41515;BME280;27247;48.020;16.720;2023-03-18T15:11:10;99852.81;;;15.42;39.13
41515;BME280;27247;48.020;16.720;2023-03-18T15:15:22;99853.38;;;15.05;39.60
41515;BME280;27247;48.020;16.720;2023-03-18T15:19:33;99857.31;;;15.09;38.79
41515;BME280;27247;48.020;16.720;2023-03-18T15:23:49;99851.41;;;14.65;39.40
41515;BME280;27247;48.020;16.720;2023-03-18T15:28:01;99857.72;;;14.45;39.67
41515;BME280;27247;48.020;16.720;2023-03-18T15:32:18;99853.47;;;14.57;39.15
41515;BME280;27247;48.020;16.720;2023-03-18T15:36:29;99854.34;;;14.71;39.68
41515;BME280;27247;48.020;16.720;2023-03-18T15:44:57;99857.19;;;14.28;39.79
41515;BME280;27247;48.020;16.720;2023-03-18T15:49:08;99871.19;;;14.17;40.66
41515;BME280;27247;48.020;16.720;2023-03-18T15:53:27;99870.34;;;13.82;40.47
41515;BME280;27247;48.020;16.720;2023-03-18T15:57:43;99877.31;;;13.76;41.30
41515;BME280;27247;48.020;16.720;2023-03-18T16:01:54;99870.28;;;13.75;41.57
41515;BME280;27247;48.020;16.720;2023-03-18T16:06:05;99870.44;;;13.67;41.55
41515;BME280;27247;48.020;16.720;2023-03-18T16:10:16;99870.19;;;13.62;41.83
41515;BME280;27247;48.020;16.720;2023-03-18T16:14:38;99857.06;;;13.52;41.70
41515;BME280;27247;48.020;16.720;2023-03-18T16:18:49;99864.91;;;13.26;42.27
41515;BME280;27247;48.020;16.720;2023-03-18T16:22:59;99878.97;;;13.13;42.91
41515;BME280;27247;48.020;16.720;2023-03-18T16:27:37;99878.72;;;13.08;42.84
41515;BME280;27247;48.020;16.720;2023-03-18T16:31:48;99884.72;;;13.10;42.59
41515;BME280;27247;48.020;16.720;2023-03-18T16:35:59;99881.53;;;13.00;42.97
41515;BME280;27247;48.020;16.720;2023-03-18T16:40:20;99899.44;;;12.78;44.11
41515;BME280;27247;48.020;16.720;2023-03-18T16:44:32;99892.59;;;12.75;43.83
41515;BME280;27247;48.020;16.720;2023-03-18T16:48:43;99901.97;;;12.50;44.27
41515;BME280;27247;48.020;16.720;2023-03-18T16:52:54;99893.84;;;12.58;43.93
41515;BME280;27247;48.020;16.720;2023-03-18T16:57:05;99892.16;;;12.42;43.88
41515;BME280;27247;48.020;16.720;2023-03-18T17:01:23;99883.84;;;12.23;43.79
41515;BME280;27247;48.020;16.720;2023-03-18T17:05:35;99887.28;;;12.17;43.17
41515;BME280;27247;48.020;16.720;2023-03-18T17:09:46;99886.44;;;12.01;43.67
41515;BME280;27247;48.020;16.720;2023-03-18T17:13:56;99881.44;;;11.83;43.96
41515;BME280;27247;48.020;16.720;2023-03-18T17:18:12;99881.84;;;11.72;44.52
41515;BME280;27247;48.020;16.720;2023-03-18T17:22:26;99882.66;;;11.58;44.88
41515;BME280;27247;48.020;16.720;2023-03-18T17:26:37;99894.00;;;11.37;45.32
41515;BME280;27247;48.020;16.720;2023-03-18T17:30:47;99894.13;;;11.21;45.53
41515;BME280;27247;48.020;16.720;2023-03-18T17:34:59;99895.38;;;11.10;45.44
41515;BME280;27247;48.020;16.720;2023-03-18T17:39:10;99906.06;;;11.10;45.58
41515;BME280;27247;48.020;16.720;2023-03-18T17:43:34;99904.69;;;10.92;45.39
41515;BME280;27247;48.020;16.720;2023-03-18T17:47:45;99901.00;;;10.93;45.09
41515;BME280;27247;48.020;16.720;2023-03-18T17:51:56;99907.66;;;10.97;45.02
41515;BME280;27247;48.020;16.720;2023-03-18T17:56:14;99903.41;;;10.79;45.28
41515;BME280;27247;48.020;16.720;2023-03-18T18:00:25;99909.34;;;10.59;45.80
41515;BME280;27247;48.020;16.720;2023-03-18T18:04:36;99900.75;;;10.40;46.21
41515;BME280;27247;48.020;16.720;2023-03-18T18:08:49;99894.56;;;10.32;46.18
41515;BME280;27247;48.020;16.720;2023-03-18T18:12:59;99905.28;;;10.23;46.68
41515;BME280;27247;48.020;16.720;2023-03-18T18:17:13;99908.97;;;10.22;46.31
41515;BME280;27247;48.020;16.720;2023-03-18T18:21:24;99918.31;;;10.10;46.75
41515;BME280;27247;48.020;16.720;2023-03-18T18:25:35;99912.16;;;10.02;47.09
41515;BME280;27247;48.020;16.720;2023-03-18T18:29:46;99920.34;;;9.84;47.40
41515;BME280;27247;48.020;16.720;2023-03-18T18:33:57;99906.53;;;9.72;47.15
41515;BME280;27247;48.020;16.720;2023-03-18T18:38:08;99914.03;;;9.52;47.41
41515;BME280;27247;48.020;16.720;2023-03-18T18:42:21;99908.38;;;9.39;47.83
41515;BME280;27247;48.020;16.720;2023-03-18T18:46:32;99915.88;;;9.44;47.91
41515;BME280;27247;48.020;16.720;2023-03-18T18:50:44;99915.72;;;9.37;47.89
41515;BME280;27247;48.020;16.720;2023-03-18T18:54:56;99915.38;;;9.40;47.54
41515;BME280;27247;48.020;16.720;2023-03-18T19:03:34;99920.72;;;9.48;47.67
41515;BME280;27247;48.020;16.720;2023-03-18T19:07:44;99926.53;;;9.60;47.25
41515;BME280;27247;48.020;16.720;2023-03-18T19:11:55;99915.03;;;9.51;47.57
41515;BME280;27247;48.020;16.720;2023-03-18T19:16:26;99918.03;;;9.48;47.88
41515;BME280;27247;48.020;16.720;2023-03-18T19:20:38;99916.72;;;9.44;47.75
41515;BME280;27247;48.020;16.720;2023-03-18T19:24:50;99918.38;;;9.53;48.25
41515;BME280;27247;48.020;16.720;2023-03-18T19:29:01;99910.72;;;9.42;48.46
41515;BME280;27247;48.020;16.720;2023-03-18T19:33:16;99914.22;;;9.43;48.41
41515;BME280;27247;48.020;16.720;2023-03-18T19:37:28;99923.53;;;9.39;48.29
41515;BME280;27247;48.020;16.720;2023-03-18T19:41:40;99922.34;;;9.33;48.79
41515;BME280;27247;48.020;16.720;2023-03-18T19:45:51;99920.66;;;9.24;49.21
41515;BME280;27247;48.020;16.720;2023-03-18T19:50:12;99934.31;;;9.21;49.53
41515;BME280;27247;48.020;16.720;2023-03-18T19:54:33;99933.16;;;9.15;49.80
41515;BME280;27247;48.020;16.720;2023-03-18T19:58:45;99921.94;;;8.95;50.02
41515;BME280;27247;48.020;16.720;2023-03-18T20:02:56;99935.44;;;8.94;49.69
41515;BME280;27247;48.020;16.720;2023-03-18T20:07:07;99941.59;;;8.86;50.27
41515;BME280;27247;48.020;16.720;2023-03-18T20:11:18;99933.75;;;8.85;51.03
41515;BME280;27247;48.020;16.720;2023-03-18T20:15:30;99935.84;;;8.65;51.30
41515;BME280;27247;48.020;16.720;2023-03-18T20:19:41;99938.44;;;8.49;51.68
41515;BME280;27247;48.020;16.720;2023-03-18T20:23:52;99939.88;;;8.35;52.34
41515;BME280;27247;48.020;16.720;2023-03-18T20:28:10;99930.06;;;8.36;52.97
41515;BME280;27247;48.020;16.720;2023-03-18T20:32:22;99931.75;;;8.19;53.46
41515;BME280;27247;48.020;16.720;2023-03-18T20:36:33;99937.91;;;8.19;53.54
41515;BME280;27247;48.020;16.720;2023-03-18T20:40:45;99934.78;;;7.98;53.70
41515;BME280;27247;48.020;16.720;2023-03-18T20:44:58;99934.38;;;7.85;54.23
41515;BME280;27247;48.020;16.720;2023-03-18T20:49:09;99936.03;;;7.86;54.69
41515;BME280;27247;48.020;16.720;2023-03-18T20:53:23;99928.72;;;7.88;54.91
41515;BME280;27247;48.020;16.720;2023-03-18T20:57:34;99919.66;;;7.73;55.80
41515;BME280;27247;48.020;16.720;2023-03-18T21:01:45;99914.94;;;7.66;55.79
41515;BME280;27247;48.020;16.720;2023-03-18T21:05:59;99915.28;;;7.46;56.68
41515;BME280;27247;48.020;16.720;2023-03-18T21:10:15;99920.75;;;7.44;57.30
41515;BME280;27247;48.020;16.720;2023-03-18T21:14:26;99922.66;;;7.34;57.71
41515;BME280;27247;48.020;16.720;2023-03-18T21:18:37;99920.31;;;7.31;58.09
41515;BME280;27247;48.020;16.720;2023-03-18T21:22:50;99929.53;;;7.27;58.35
41515;BME280;27247;48.020;16.720;2023-03-18T21:27:01;99924.69;;;7.22;58.93
41515;BME280;27247;48.020;16.720;2023-03-18T21:31:27;99927.88;;;7.08;59.71
41515;BME280;27247;48.020;16.720;2023-03-18T21:35:40;99926.19;;;7.07;59.46
41515;BME280;27247;48.020;16.720;2023-03-18T21:39:51;99913.66;;;6.99;60.47
41515;BME280;27247;48.020;16.720;2023-03-18T21:44:02;99907.66;;;6.97;60.57
41515;BME280;27247;48.020;16.720;2023-03-18T21:48:12;99905.00;;;6.97;61.16
41515;BME280;27247;48.020;16.720;2023-03-18T21:52:28;99896.97;;;6.89;61.37
41515;BME280;27247;48.020;16.720;2023-03-18T21:56:39;99904.69;;;6.83;61.71
41515;BME280;27247;48.020;16.720;2023-03-18T22:00:59;99902.25;;;6.71;62.13
41515;BME280;27247;48.020;16.720;2023-03-18T22:05:21;99910.91;;;6.73;62.50
41515;BME280;27247;48.020;16.720;2023-03-18T22:09:32;99901.34;;;6.81;62.49
41515;BME280;27247;48.020;16.720;2023-03-18T22:13:43;99904.16;;;6.79;62.66
41515;BME280;27247;48.020;16.720;2023-03-18T22:17:54;99908.50;;;6.80;62.59
41515;BME280;27247;48.020;16.720;2023-03-18T22:22:11;99896.03;;;6.81;63.41
41515;BME280;27247;48.020;16.720;2023-03-18T22:26:23;99904.69;;;6.83;63.59
41515;BME280;27247;48.020;16.720;2023-03-18T22:30:33;99905.00;;;6.80;63.86
41515;BME280;27247;48.020;16.720;2023-03-18T22:34:44;99902.50;;;6.78;63.75
41515;BME280;27247;48.020;16.720;2023-03-18T22:38:55;99904.47;;;6.76;64.20
41515;BME280;27247;48.020;16.720;2023-03-18T22:47:27;99900.25;;;6.56;65.08
41515;BME280;27247;48.020;16.720;2023-03-18T22:51:38;99896.75;;;6.55;65.29
41515;BME280;27247;48.020;16.720;2023-03-18T22:55:53;99913.13;;;6.51;65.83
41515;BME280;27247;48.020;16.720;2023-03-18T23:00:15;99914.50;;;6.55;65.82
41515;BME280;27247;48.020;16.720;2023-03-18T23:04:29;99916.91;;;6.48;66.30
41515;BME280;27247;48.020;16.720;2023-03-18T23:08:41;99920.81;;;6.54;66.42
41515;BME280;27247;48.020;16.720;2023-03-18T23:12:52;99918.38;;;6.60;66.46
41515;BME280;27247;48.020;16.720;2023-03-18T23:17:02;99926.22;;;6.62;66.47
41515;BME280;27247;48.020;16.720;2023-03-18T23:21:18;99935.69;;;6.64;66.70
41515;BME280;27247;48.020;16.720;2023-03-18T23:25:29;99933.34;;;6.61;66.58
41515;BME280;27247;48.020;16.720;2023-03-18T23:29:39;99921.72;;;6.62;66.77
41515;BME280;27247;48.020;16.720;2023-03-18T23:33:50;99922.72;;;6.61;67.05
41515;BME280;27247;48.020;16.720;2023-03-18T23:38:00;99928.19;;;6.60;67.20
41515;BME280;27247;48.020;16.720;2023-03-18T23:42:12;99911.84;;;6.55;67.19
41515;BME280;27247;48.020;16.720;2023-03-18T23:46:24;99914.25;;;6.48;68.04
41515;BME280;27247;48.020;16.720;2023-03-18T23:50:34;99900.06;;;6.39;68.22
41515;BME280;27247;48.020;16.720;2023-03-18T23:54:44;99901.34;;;6.35;68.21
41515;BME280;27247;48.020;16.720;2023-03-18T23:58:55;99903.84;;;6.37;68.66
